Time;durP1;ratioP1;P1;durP2;ratioP2;P2;SDS_P1;SDS_P2;PMS_P1;PMS_P2;Temp;Humidity;BMP_temperature;BMP_pressure;BME280_temperature;BME280_humidity;BME280_pressure;Samples;Min_cycle;Max_cycle;Signal;HPM_P1;HPM_P2
2024/01/24 00:01:58;;;;;;;20.05;12.57;;;;;;;-1.11;65.96;99908.50;6277690;22;20078;-57
2024/01/24 00:04:24;;;;;;;18.88;11.73;;;;;;;-1.05;66.38;99912.72;6277630;22;20007;-57
2024/01/24 00:06:50;;;;;;;19.15;12.40;;;;;;;-1.06;66.47;99913.63;6277224;22;20413;-56
2024/01/24 00:09:16;;;;;;;21.67;12.43;;;;;;;-1.09;66.57;99897.94;6276982;22;20139;-57
2024/01/24 00:11:41;;;;;;;18.65;11.40;;;;;;;-1.04;66.52;99896.88;6277330;22;20015;-61
2024/01/24 00:14:07;;;;;;;18.85;12.02;;;;;;;-1.07;66.95;99889.09;6276341;22;20392;-58
2024/01/24 00:16:32;;;;;;;20.08;12.48;;;;;;;-1.05;66.62;99892.53;6277696;22;20334;-61
2024/01/24 00:18:58;;;;;;;20.95;12.25;;;;;;;-1.02;66.68;99892.44;6276965;22;20247;-58
2024/01/24 00:21:23;;;;;;;19.08;11.63;;;;;;;-1.05;66.57;99887.28;6276053;22;20000;-58
2024/01/24 00:23:49;;;;;;;21.58;12.68;;;;;;;-1.32;66.62;99832.06;6276373;22;20016;-63
2024/01/24 00:26:14;;;;;;;20.45;12.07;;;;;;;-1.02;66.45;99878.47;6276660;22;20000;-58
2024/01/24 00:28:40;;;;;;;17.48;11.32;;;;;;;-1.04;66.52;99883.75;6276735;22;20063;-61
2024/01/24 00:31:05;;;;;;;20.95;13.20;;;;;;;-1.09;66.25;99864.66;6276367;22;20011;-60
2024/01/24 00:33:31;;;;;;;21.77;12.23;;;;;;;-1.06;66.05;99871.59;6276611;22;20014;-63
2024/01/24 00:35:56;;;;;;;18.13;12.18;;;;;;;-1.01;66.38;99888.06;6277064;22;20002;-61
2024/01/24 00:38:22;;;;;;;20.13;11.60;;;;;;;-1.04;66.67;99867.97;6276493;22;20285;-60
2024/01/24 00:40:48;;;;;;;18.65;12.10;;;;;;;-1.33;66.26;99829.47;6275817;22;20069;-63
2024/01/24 00:43:13;;;;;;;19.88;12.13;;;;;;;-1.04;66.90;99872.38;6276825;22;20012;-61
2024/01/24 00:45:39;;;;;;;18.27;11.93;;;;;;;-0.99;66.53;99869.59;6276362;22;20015;-60
2024/01/24 00:48:06;;;;;;;19.08;12.43;;;;;;;-1.02;66.49;99846.91;6276135;22;20368;-59
2024/01/24 00:50:32;;;;;;;16.80;11.32;;;;;;;-0.94;66.13;99855.41;6276915;22;20388;-58
2024/01/24 00:53:04;;;;;;;18.38;12.20;;;;;;;-0.92;66.23;99840.44;6275691;22;20058;-59
2024/01/24 00:55:30;;;;;;;18.83;11.95;;;;;;;-0.94;66.51;99825.66;6276880;22;20015;-58
2024/01/24 00:57:56;;;;;;;18.70;12.05;;;;;;;-1.22;66.27;99790.63;6276957;22;20099;-60
2024/01/24 01:00:22;;;;;;;18.58;11.75;;;;;;;-0.98;66.19;99834.50;6276454;22;20045;-58
2024/01/24 01:02:48;;;;;;;20.67;11.75;;;;;;;-1.19;66.16;99795.75;6275960;22;20000;-61
2024/01/24 01:05:13;;;;;;;18.27;11.23;;;;;;;-0.92;66.12;99831.72;6277090;22;20004;-57
2024/01/24 01:07:39;;;;;;;21.02;12.07;;;;;;;-0.92;66.09;99837.81;6275806;22;20052;-60
2024/01/24 01:10:08;;;;;;;16.90;11.18;;;;;;;-0.87;65.90;99840.28;6276197;22;20090;-57
2024/01/24 01:12:33;;;;;;;21.17;12.15;;;;;;;-1.21;66.14;99775.69;6276676;22;20083;-63
2024/01/24 01:14:59;;;;;;;19.23;12.23;;;;;;;-0.92;66.22;99821.19;6277106;22;20083;-61
2024/01/24 01:17:24;;;;;;;20.00;12.63;;;;;;;-0.92;66.31;99814.16;6276187;22;20011;-58
2024/01/24 01:19:50;;;;;;;19.52;12.50;;;;;;;-0.89;66.50;99818.47;6276101;22;20029;-60
2024/01/24 01:22:15;;;;;;;18.65;11.90;;;;;;;-0.94;66.03;99809.88;6276780;22;20000;-60
2024/01/24 01:24:41;;;;;;;19.85;12.18;;;;;;;-0.86;66.18;99820.97;6276014;22;20034;-57
2024/01/24 01:27:08;;;;;;;16.83;11.82;;;;;;;-0.83;66.04;99812.16;6275887;22;20008;-61
2024/01/24 01:29:33;;;;;;;17.42;11.73;;;;;;;-0.83;66.06;99828.75;6276552;22;20258;-61
2024/01/24 01:31:59;;;;;;;18.10;12.00;;;;;;;-0.87;66.28;99832.41;6276916;22;20014;-60
2024/01/24 01:34:24;;;;;;;16.60;11.40;;;;;;;-0.89;66.41;99815.84;6275964;22;20004;-59
2024/01/24 01:36:50;;;;;;;19.20;12.25;;;;;;;-0.88;65.97;99804.41;6274953;22;19999;-59
2024/01/24 01:39:15;;;;;;;17.23;11.38;;;;;;;-0.83;65.94;99813.00;6276448;22;20007;-60
2024/01/24 01:41:41;;;;;;;18.88;12.13;;;;;;;-0.87;66.35;99783.31;6276600;22;20003;-57
2024/01/24 01:44:07;;;;;;;18.95;11.75;;;;;;;-0.85;66.03;99788.53;6276109;22;20015;-59
2024/01/24 01:46:32;;;;;;;18.50;11.48;;;;;;;-0.85;66.11;99791.16;6276451;22;20065;-58
2024/01/24 01:48:59;;;;;;;16.33;11.77;;;;;;;-0.84;66.36;99786.75;6276195;22;20003;-61
2024/01/24 01:51:26;;;;;;;18.35;11.95;;;;;;;-0.83;66.29;99796.38;6277050;22;20003;-61
2024/01/24 01:53:52;;;;;;;18.17;11.68;;;;;;;-1.10;66.28;99755.19;6276056;22;20091;-58
2024/01/24 01:56:20;;;;;;;19.33;12.02;;;;;;;-0.83;66.88;99777.97;6274721;22;20049;-58
2024/01/24 01:58:47;;;;;;;21.15;12.55;;;;;;;-0.80;66.96;99794.47;6276572;22;20090;-57
2024/01/24 02:01:14;;;;;;;18.92;11.80;;;;;;;-0.83;67.05;99777.97;6275724;22;20293;-55
2024/01/24 02:03:40;;;;;;;17.13;11.43;;;;;;;-0.89;67.41;99771.16;6276549;22;20023;-54
2024/01/24 02:06:07;;;;;;;19.33;12.30;;;;;;;-1.03;67.33;99746.19;6275845;22;20008;-60
2024/01/24 02:08:34;;;;;;;20.20;12.52;;;;;;;-0.84;67.08;99781.47;6277048;22;20000;-55
2024/01/24 02:10:59;;;;;;;18.70;12.23;;;;;;;-1.05;66.96;99750.63;6276755;22;20034;-55
2024/01/24 02:13:31;;;;;;;17.52;11.13;;;;;;;-0.92;66.97;99766.00;6276356;22;20004;-52
2024/01/24 02:15:59;;;;;;;16.27;11.50;;;;;;;-0.81;66.88;99782.25;6275927;22;20074;-58
2024/01/24 02:18:24;;;;;;;18.10;11.32;;;;;;;-0.84;66.80;99773.59;6274748;22;20011;-58
2024/01/24 02:20:51;;;;;;;18.58;11.82;;;;;;;-0.84;66.97;99774.47;6276381;22;20007;-59
2024/01/24 02:23:18;;;;;;;18.38;11.18;;;;;;;-1.15;67.36;99717.72;6275644;22;20018;-59
2024/01/24 02:25:43;;;;;;;18.02;11.80;;;;;;;-0.83;66.77;99773.56;6274632;22;20074;-59
2024/01/24 02:28:09;;;;;;;18.63;11.93;;;;;;;-0.87;66.77;99764.06;6275737;22;20492;-60
2024/01/24 02:30:34;;;;;;;19.10;12.45;;;;;;;-0.85;67.23;99767.50;6275793;22;20008;-59
2024/01/24 02:33:00;;;;;;;17.98;11.95;;;;;;;-0.84;67.35;99750.81;6275651;22;20003;-58
2024/01/24 02:35:27;;;;;;;19.17;12.32;;;;;;;-0.85;67.02;99746.47;6274140;22;20230;-59
2024/01/24 02:37:53;;;;;;;19.38;11.95;;;;;;;-0.86;66.95;99750.00;6274957;22;20000;-60
2024/01/24 02:40:19;;;;;;;21.50;11.63;;;;;;;-0.88;67.68;99743.94;6275595;22;20071;-59
2024/01/24 02:42:45;;;;;;;18.38;12.25;;;;;;;-0.81;66.90;99755.13;6275622;22;20079;-62
2024/01/24 02:45:10;;;;;;;18.52;12.00;;;;;;;-0.90;67.13;99737.88;6275849;22;20046;-61
2024/01/24 02:47:37;;;;;;;19.05;12.18;;;;;;;-0.82;67.46;99756.03;6274812;22;20340;-58
2024/01/24 02:50:04;;;;;;;19.38;11.88;;;;;;;-1.06;67.07;99712.13;6275422;22;20480;-52
2024/01/24 02:52:31;;;;;;;17.60;11.68;;;;;;;-0.79;67.09;99746.25;6276578;22;20003;-55
2024/01/24 02:54:56;;;;;;;18.85;11.90;;;;;;;-0.78;66.73;99750.59;6275736;22;19999;-52
2024/01/24 02:57:22;;;;;;;17.75;11.40;;;;;;;-0.76;66.90;99740.88;6275916;22;19999;-56
2024/01/24 02:59:47;;;;;;;18.85;11.85;;;;;;;-0.77;66.99;99733.91;6276220;22;20000;-53
2024/01/24 03:02:13;;;;;;;17.75;11.57;;;;;;;-0.76;66.91;99742.66;6276004;22;20011;-60
2024/01/24 03:04:38;;;;;;;17.08;11.30;;;;;;;-0.76;66.89;99738.25;6274457;22;20385;-55
2024/01/24 03:07:04;;;;;;;19.55;11.18;;;;;;;-0.75;66.70;99739.97;6276091;22;20017;-60
2024/01/24 03:09:29;;;;;;;17.70;10.98;;;;;;;-0.69;67.09;99740.69;6276078;22;20012;-58
2024/01/24 03:11:55;;;;;;;17.13;11.50;;;;;;;-0.69;67.17;99738.06;6274326;22;20006;-58
2024/01/24 03:14:24;;;;;;;17.67;11.32;;;;;;;-0.76;67.06;99725.09;6275235;22;20407;-62
2024/01/24 03:16:50;;;;;;;18.40;11.52;;;;;;;-0.70;66.72;99731.09;6276077;22;20014;-60
2024/01/24 03:19:16;;;;;;;19.05;11.48;;;;;;;-0.69;66.93;99740.69;6275749;22;20007;-61
2024/01/24 03:21:41;;;;;;;18.13;11.57;;;;;;;-0.68;66.81;99743.25;6275459;22;20300;-61
2024/01/24 03:24:07;;;;;;;18.40;11.45;;;;;;;-0.91;66.87;99705.47;6276094;22;20030;-62
2024/01/24 03:26:33;;;;;;;19.85;11.82;;;;;;;-0.97;67.35;99691.69;6276152;22;20065;-58
2024/01/24 03:28:58;;;;;;;18.80;11.88;;;;;;;-0.66;66.98;99737.94;6274179;22;20032;-58
2024/01/24 03:31:24;;;;;;;20.60;12.10;;;;;;;-0.71;67.48;99737.25;6275385;22;20401;-57
2024/01/24 03:33:49;;;;;;;18.48;11.93;;;;;;;-0.65;67.16;99748.38;6275723;22;20003;-58
2024/01/24 03:36:15;;;;;;;18.80;12.02;;;;;;;-0.58;67.30;99746.41;6276065;22;20062;-56
2024/01/24 03:38:40;;;;;;;19.17;12.02;;;;;;;-0.60;67.32;99737.72;6276070;22;20015;-59
2024/01/24 03:41:06;;;;;;;17.88;11.25;;;;;;;-0.51;66.92;99742.63;6275216;22;20035;-58
2024/01/24 03:43:32;;;;;;;16.75;11.75;;;;;;;-0.53;66.44;99720.78;6275452;22;20090;-60
2024/01/24 03:45:59;;;;;;;18.92;10.93;;;;;;;-0.87;66.65;99665.03;6275472;22;20047;-60
2024/01/24 03:48:25;;;;;;;20.08;12.68;;;;;;;-0.60;67.28;99719.31;6275691;22;20042;-60
2024/01/24 03:50:52;;;;;;;19.25;12.10;;;;;;;-0.58;67.00;99717.47;6274843;22;20016;-59
2024/01/24 03:53:17;;;;;;;16.52;11.35;;;;;;;-0.61;67.22;99723.69;6275080;22;20008;-61
2024/01/24 03:55:43;;;;;;;16.77;10.77;;;;;;;-0.69;67.38;99693.34;6276543;22;20460;-60
2024/01/24 03:58:08;;;;;;;17.63;11.25;;;;;;;-0.61;67.38;99696.56;6277865;22;20333;-61
2024/01/24 04:00:34;;;;;;;19.55;12.50;;;;;;;-0.66;67.89;99695.88;6277134;22;20004;-60
2024/01/24 04:02:59;;;;;;;17.88;11.40;;;;;;;-0.61;67.99;99700.03;6276041;22;20087;-60
2024/01/24 04:05:25;;;;;;;23.55;12.75;;;;;;;-0.60;67.94;99695.63;6276729;22;20300;-60
2024/01/24 04:07:50;;;;;;;20.73;12.15;;;;;;;-0.56;67.86;99681.47;6276994;22;20096;-59
2024/01/24 04:10:16;;;;;;;19.02;12.48;;;;;;;-0.59;67.68;99690.34;6276392;22;20014;-61
2024/01/24 04:12:42;;;;;;;19.70;12.23;;;;;;;-0.55;68.10;99682.34;6277034;22;20478;-60
2024/01/24 04:15:08;;;;;;;21.23;11.48;;;;;;;-0.54;68.20;99676.16;6277458;22;20006;-60
2024/01/24 04:17:33;;;;;;;21.20;12.43;;;;;;;-0.51;67.97;99683.94;6276898;22;20374;-62
2024/01/24 04:19:59;;;;;;;24.02;13.63;;;;;;;-0.52;67.92;99684.84;6276863;22;20082;-59
2024/01/24 04:22:25;;;;;;;23.75;13.73;;;;;;;-0.56;68.15;99691.13;6276987;22;20266;-56
2024/01/24 04:24:50;;;;;;;22.50;12.55;;;;;;;-0.53;67.98;99678.72;6276854;22;20004;-60
2024/01/24 04:27:16;;;;;;;22.67;13.10;;;;;;;-0.59;67.90;99678.94;6276521;22;20401;-58
2024/01/24 04:29:44;;;;;;;21.77;13.10;;;;;;;-0.79;68.02;99630.56;6275259;22;20025;-59
2024/01/24 04:32:10;;;;;;;23.15;13.65;;;;;;;-0.87;68.40;99620.34;6276430;22;20416;-63
2024/01/24 04:34:36;;;;;;;25.58;14.75;;;;;;;-0.52;68.32;99677.78;6275056;22;20038;-59
2024/01/24 04:37:02;;;;;;;20.63;13.32;;;;;;;-0.57;68.71;99660.50;6276437;22;20242;-61
2024/01/24 04:39:27;;;;;;;24.13;13.90;;;;;;;-0.45;68.12;99676.66;6276624;22;20410;-63
2024/01/24 04:41:53;;;;;;;24.42;13.77;;;;;;;-0.46;68.41;99674.97;6276256;22;20019;-61
2024/01/24 04:44:19;;;;;;;22.85;13.50;;;;;;;-0.39;68.11;99685.25;6275246;22;20007;-59
2024/01/24 04:46:44;;;;;;;25.33;13.32;;;;;;;-0.40;68.67;99675.63;6276808;22;20019;-64
2024/01/24 04:49:11;;;;;;;21.67;13.57;;;;;;;-0.40;67.98;99671.22;6277128;22;20411;-60
2024/01/24 04:51:37;;;;;;;21.63;13.05;;;;;;;-0.39;68.39;99667.66;6276739;22;20000;-59
2024/01/24 04:54:04;;;;;;;22.60;12.90;;;;;;;-0.39;68.57;99667.66;6275084;22;20019;-62
2024/01/24 04:56:29;;;;;;;25.90;14.05;;;;;;;-0.63;68.06;99620.34;6275986;22;20027;-61
2024/01/24 04:58:55;;;;;;;25.95;14.25;;;;;;;-0.38;68.49;99665.91;6274964;22;20389;-57
2024/01/24 05:01:20;;;;;;;25.55;14.60;;;;;;;-0.41;68.36;99651.09;6276078;22;20010;-55
2024/01/24 05:03:46;;;;;;;24.63;14.82;;;;;;;-0.60;68.77;99624.63;6276338;22;20039;-57
2024/01/24 05:06:11;;;;;;;28.08;14.43;;;;;;;-0.39;68.93;99664.19;6275628;22;20008;-61
2024/01/24 05:08:38;;;;;;;25.20;14.52;;;;;;;-0.39;68.89;99659.78;6275358;22;19996;-60
2024/01/24 05:11:04;;;;;;;24.52;13.98;;;;;;;-0.34;68.67;99654.34;6276379;22;20085;-60
2024/01/24 05:13:29;;;;;;;28.60;14.70;;;;;;;-0.41;68.44;99650.25;6276939;22;20074;-59
2024/01/24 05:15:55;;;;;;;27.33;14.63;;;;;;;-0.35;68.80;99652.63;6276400;22;20049;-60
2024/01/24 05:18:20;;;;;;;29.08;15.90;;;;;;;-0.38;69.21;99642.25;6276540;22;20251;-60
2024/01/24 05:20:46;;;;;;;29.05;14.85;;;;;;;-0.33;68.56;99649.03;6277126;22;20003;-62
2024/01/24 05:23:11;;;;;;;28.13;14.73;;;;;;;-0.30;68.65;99648.03;6277107;22;20133;-58
2024/01/24 05:25:37;;;;;;;32.97;17.27;;;;;;;-0.32;68.71;99642.00;6275946;22;20051;-60
2024/01/24 05:28:03;;;;;;;30.17;16.13;;;;;;;-0.63;68.75;99594.03;6276135;22;20000;-61
2024/01/24 05:30:29;;;;;;;27.35;14.32;;;;;;;-0.35;68.84;99644.75;6276498;22;20403;-62
2024/01/24 05:32:57;;;;;;;26.63;14.95;;;;;;;-0.34;69.05;99657.84;6276665;22;20000;-60
2024/01/24 05:35:22;;;;;;;33.03;14.73;;;;;;;-0.37;69.19;99642.16;6275962;22;20020;-58
2024/01/24 05:37:48;;;;;;;28.83;16.60;;;;;;;-0.38;69.00;99629.94;6276574;22;20061;-62
2024/01/24 05:40:13;;;;;;;26.38;14.90;;;;;;;-0.32;69.27;99644.63;6276848;22;20043;-68
2024/01/24 05:42:39;;;;;;;26.55;14.70;;;;;;;-0.33;69.04;99645.53;6271721;22;20105;-67
2024/01/24 05:45:05;;;;;;;27.92;16.13;;;;;;;-0.32;69.47;99640.22;6275000;22;20016;-68
2024/01/24 05:47:31;;;;;;;26.52;15.15;;;;;;;-0.35;69.13;99634.22;6275030;22;20007;-68
2024/01/24 05:49:58;;;;;;;27.83;15.18;;;;;;;-0.24;69.07;99642.56;6275458;22;20404;-66
2024/01/24 05:52:24;;;;;;;26.35;14.68;;;;;;;-0.26;69.22;99625.97;6274436;22;20082;-67
2024/01/24 05:54:49;;;;;;;23.05;14.43;;;;;;;-0.30;69.13;99632.25;6274023;22;20034;-66
2024/01/24 05:57:15;;;;;;;28.17;14.75;;;;;;;-0.30;69.04;99619.09;6274810;22;20007;-67
2024/01/24 05:59:40;;;;;;;27.60;15.35;;;;;;;-0.21;68.70;99631.94;6274879;22;20006;-66
2024/01/24 06:02:06;;;;;;;29.50;15.38;;;;;;;-0.16;68.88;99624.69;6274855;22;20290;-66
2024/01/24 06:04:31;;;;;;;26.38;15.13;;;;;;;-0.19;68.99;99616.94;6274475;22;20086;-67
2024/01/24 06:07:00;;;;;;;31.45;16.13;;;;;;;-0.15;68.97;99620.28;6274054;22;20031;-67
2024/01/24 06:09:29;;;;;;;30.35;15.07;;;;;;;-0.16;68.85;99616.81;6275767;22;20404;-66
2024/01/24 06:11:55;;;;;;;32.53;16.10;;;;;;;-0.22;69.02;99611.78;6276232;22;20304;-66
2024/01/24 06:14:20;;;;;;;28.90;15.88;;;;;;;-0.13;69.14;99601.81;6275843;22;20004;-65
2024/01/24 06:16:46;;;;;;;29.25;15.52;;;;;;;-0.38;69.46;99555.44;6276411;22;20082;-66
2024/01/24 06:19:12;;;;;;;27.30;15.88;;;;;;;-0.10;69.21;99597.28;6275521;22;19999;-67
2024/01/24 06:21:37;;;;;;;28.40;15.98;;;;;;;-0.01;68.67;99596.03;6274958;22;20434;-68
2024/01/24 06:24:05;;;;;;;33.13;16.25;;;;;;;0.05;68.75;99597.56;6276111;22;20023;-67
2024/01/24 06:26:31;;;;;;;30.83;16.48;;;;;;;0.03;68.57;99597.66;6275877;22;20085;-66
2024/01/24 06:28:57;;;;;;;31.13;15.13;;;;;;;0.00;68.61;99581.97;6276334;22;20003;-67
2024/01/24 06:31:22;;;;;;;28.48;16.02;;;;;;;-0.05;68.56;99579.53;6275782;22;20011;-66
2024/01/24 06:33:48;;;;;;;29.27;14.75;;;;;;;0.03;68.65;99591.50;6276194;22;20003;-66
2024/01/24 06:36:13;;;;;;;34.50;16.10;;;;;;;0.03;68.70;99584.50;6276248;22;19996;-67
2024/01/24 06:38:39;;;;;;;28.90;14.95;;;;;;;0.01;68.97;99586.31;6275862;22;20018;-66
2024/01/24 06:41:05;;;;;;;32.30;16.25;;;;;;;0.04;68.97;99585.31;6275578;22;20097;-66
2024/01/24 06:43:30;;;;;;;26.20;13.88;;;;;;;0.09;68.92;99592.13;6275708;22;20496;-65
2024/01/24 06:45:56;;;;;;;27.55;16.33;;;;;;;0.07;68.61;99587.81;6275549;22;20000;-66
2024/01/24 06:48:21;;;;;;;36.75;16.55;;;;;;;0.01;69.08;99575.78;6275714;22;20038;-66
2024/01/24 06:50:47;;;;;;;30.92;15.88;;;;;;;0.09;68.96;99581.59;6276588;22;20004;-67
2024/01/24 06:53:14;;;;;;;31.15;16.23;;;;;;;0.16;68.45;99582.19;6274506;22;20069;-66
2024/01/24 06:55:41;;;;;;;27.23;15.73;;;;;;;0.11;68.58;99569.22;6275468;22;20355;-65
2024/01/24 06:58:07;;;;;;;24.52;14.80;;;;;;;0.17;69.06;99583.91;6274996;22;20011;-66
2024/01/24 07:00:33;;;;;;;34.15;16.30;;;;;;;0.11;68.67;99558.69;6276011;22;20081;-67
2024/01/24 07:03:00;;;;;;;32.05;15.55;;;;;;;0.23;68.66;99559.94;6275799;22;20003;-66
2024/01/24 07:05:25;;;;;;;31.10;16.35;;;;;;;0.24;68.31;99558.16;6275623;22;20426;-66
2024/01/24 07:07:51;;;;;;;31.10;15.77;;;;;;;0.21;68.45;99568.81;6276324;22;20004;-66
2024/01/24 07:10:17;;;;;;;26.85;15.27;;;;;;;0.25;68.39;99554.63;6275544;22;20006;-65
2024/01/24 07:12:45;;;;;;;32.13;16.88;;;;;;;0.31;68.34;99559.63;6275140;22;20007;-67
2024/01/24 07:15:12;;;;;;;28.08;15.63;;;;;;;-0.06;68.27;99501.50;6275489;22;20046;-67
2024/01/24 07:17:38;;;;;;;29.13;16.38;;;;;;;0.21;68.53;99539.88;6275978;22;20038;-67
2024/01/24 07:20:04;;;;;;;28.90;15.30;;;;;;;0.28;68.54;99542.19;6274888;22;20019;-64
2024/01/24 07:22:29;;;;;;;26.00;15.60;;;;;;;0.17;68.38;99515.47;6273601;22;20327;-66
2024/01/24 07:24:55;;;;;;;28.25;15.65;;;;;;;0.39;68.56;99544.34;6275215;22;20015;-66
2024/01/24 07:27:20;;;;;;;25.85;14.93;;;;;;;0.28;68.24;99522.91;6275468;22;20308;-67
2024/01/24 07:29:46;;;;;;;26.35;14.82;;;;;;;0.52;67.87;99541.19;6274988;22;20007;-66
2024/01/24 07:32:11;;;;;;;27.15;15.50;;;;;;;0.52;68.13;99551.72;6276971;22;20360;-66
2024/01/24 07:34:38;;;;;;;24.90;14.48;;;;;;;0.54;68.40;99542.81;6276143;22;20015;-66
2024/01/24 07:37:05;;;;;;;32.13;16.10;;;;;;;0.47;68.33;99544.03;6277916;22;20014;-67
2024/01/24 07:39:31;;;;;;;29.95;15.90;;;;;;;0.54;67.98;99542.81;6277223;22;20004;-68
2024/01/24 07:41:57;;;;;;;27.83;15.18;;;;;;;0.52;68.47;99543.84;6276634;22;20051;-63
2024/01/24 07:44:23;;;;;;;25.23;14.82;;;;;;;0.52;68.51;99535.94;6278463;22;20011;-67
2024/01/24 07:46:49;;;;;;;26.48;14.35;;;;;;;0.51;67.98;99521.06;6278548;22;20288;-67
2024/01/24 07:49:14;;;;;;;29.65;15.48;;;;;;;0.55;68.17;99535.78;6278003;22;20011;-66
2024/01/24 07:51:46;;;;;;;27.95;15.48;;;;;;;0.56;68.31;99530.44;6276670;22;20060;-66
2024/01/24 07:54:13;;;;;;;25.33;15.60;;;;;;;0.57;68.73;99541.84;6277616;22;19995;-65
2024/01/24 07:56:39;;;;;;;24.88;14.45;;;;;;;0.58;68.30;99517.22;6277797;22;20007;-66
2024/01/24 07:59:05;;;;;;;26.50;14.55;;;;;;;0.65;68.17;99525.72;6277441;22;20065;-64
2024/01/24 08:01:31;;;;;;;23.38;14.43;;;;;;;0.63;68.12;99528.41;6277116;22;20081;-66
2024/01/24 08:03:56;;;;;;;27.73;15.35;;;;;;;0.35;68.53;99463.78;6277435;22;20460;-64
2024/01/24 08:06:22;;;;;;;33.40;15.93;;;;;;;0.62;68.43;99500.34;6277899;22;20110;-66
2024/01/24 08:08:48;;;;;;;26.33;15.55;;;;;;;0.75;68.01;99499.81;6275886;22;20006;-66
2024/01/24 08:11:14;;;;;;;31.23;16.10;;;;;;;0.52;67.99;99456.91;6276697;22;20023;-66
2024/01/24 08:13:39;;;;;;;28.90;15.52;;;;;;;0.84;68.39;99512.53;6277101;22;20392;-66
2024/01/24 08:16:05;;;;;;;25.17;15.13;;;;;;;0.87;68.20;99504.50;6276883;22;20073;-66
2024/01/24 08:18:33;;;;;;;27.85;16.05;;;;;;;0.90;68.39;99496.44;6277285;22;20087;-66
2024/01/24 08:20:59;;;;;;;31.88;15.50;;;;;;;0.68;67.84;99457.91;6277178;22;20011;-64
2024/01/24 08:23:24;;;;;;;28.50;16.00;;;;;;;0.91;68.22;99492.03;6277284;22;20000;-66
2024/01/24 08:25:50;;;;;;;26.92;15.38;;;;;;;0.91;68.17;99497.31;6276924;22;20038;-66
2024/01/24 08:28:15;;;;;;;25.90;15.43;;;;;;;0.64;68.13;99444.94;6276628;22;20343;-65
2024/01/24 08:30:41;;;;;;;29.13;14.32;;;;;;;0.67;68.60;99435.09;6277087;22;20042;-66
2024/01/24 08:33:06;;;;;;;25.88;14.52;;;;;;;0.89;68.37;99460.47;6276223;22;20007;-66
2024/01/24 08:35:35;;;;;;;30.17;15.13;;;;;;;1.03;67.89;99483.53;6276665;22;20011;-66
2024/01/24 08:38:01;;;;;;;26.73;15.15;;;;;;;1.02;68.15;99478.38;6276727;22;20353;-66
2024/01/24 08:40:27;;;;;;;27.90;15.02;;;;;;;1.03;67.79;99472.16;6277184;22;19995;-65
2024/01/24 08:42:53;;;;;;;26.77;14.52;;;;;;;0.99;68.33;99448.59;6276360;22;20018;-67
2024/01/24 08:45:18;;;;;;;26.17;14.52;;;;;;;1.10;68.15;99465.66;6275792;22;20023;-67
2024/01/24 08:47:44;;;;;;;25.70;15.50;;;;;;;1.12;68.23;99461.16;6276783;22;20097;-67
2024/01/24 08:50:10;;;;;;;27.35;14.63;;;;;;;0.85;68.06;99398.28;6276400;22;20085;-68
2024/01/24 08:52:35;;;;;;;26.95;15.40;;;;;;;1.13;68.12;99441.78;6273149;22;20066;-68
2024/01/24 08:55:01;;;;;;;23.73;13.98;;;;;;;1.19;68.13;99449.41;6276766;22;20011;-67
2024/01/24 08:57:27;;;;;;;25.17;14.60;;;;;;;1.18;68.16;99434.50;6277000;22;19996;-68
2024/01/24 08:59:53;;;;;;;27.25;14.15;;;;;;;1.20;67.65;99415.97;6276618;22;20297;-67
2024/01/24 09:02:19;;;;;;;25.17;14.18;;;;;;;1.21;67.82;99425.59;6275705;22;20103;-67
2024/01/24 09:04:46;;;;;;;25.00;13.70;;;;;;;1.25;67.79;99430.66;6276674;22;20010;-67
2024/01/24 09:07:16;;;;;;;25.48;14.15;;;;;;;1.19;67.42;99409.84;6275028;22;20090;-67
2024/01/24 09:09:42;;;;;;;25.10;14.38;;;;;;;1.20;68.02;99411.53;6276102;22;20031;-65
2024/01/24 09:12:07;;;;;;;23.23;14.43;;;;;;;1.10;67.87;99399.75;6276643;22;20389;-67
2024/01/24 09:14:34;;;;;;;22.08;13.10;;;;;;;1.27;67.22;99420.88;6276218;22;20022;-66
2024/01/24 09:16:59;;;;;;;27.38;13.20;;;;;;;1.15;67.31;99408.28;6275673;22;20000;-65
2024/01/24 09:19:25;;;;;;;24.15;12.27;;;;;;;1.17;67.49;99411.69;6276694;22;20010;-66
2024/01/24 09:21:50;;;;;;;27.55;13.70;;;;;;;1.20;67.63;99422.09;6275372;22;20487;-63
2024/01/24 09:24:16;;;;;;;23.17;14.07;;;;;;;1.19;67.72;99409.00;6271884;22;20004;-66
2024/01/24 09:26:41;;;;;;;21.55;12.95;;;;;;;1.29;67.67;99395.28;6272577;22;20008;-65
2024/01/24 09:29:11;;;;;;;22.85;12.77;;;;;;;1.34;67.60;99381.00;6275043;22;20063;-64
2024/01/24 09:31:43;;;;;;;23.88;13.68;;;;;;;1.38;67.47;99393.13;6276503;22;20404;-66
2024/01/24 09:34:10;;;;;;;27.23;14.35;;;;;;;1.39;67.40;99376.34;6276109;22;20004;-65
2024/01/24 09:36:36;;;;;;;20.80;12.38;;;;;;;1.41;66.48;99382.41;6275649;22;20004;-67
2024/01/24 09:39:01;;;;;;;26.02;13.52;;;;;;;1.39;67.22;99369.31;6274798;22;20007;-64
2024/01/24 09:41:34;;;;;;;21.73;12.98;;;;;;;1.45;66.65;99373.44;6276580;22;20015;-66
2024/01/24 09:44:06;;;;;;;21.10;12.27;;;;;;;1.40;66.94;99375.44;6274331;22;20030;-62
2024/01/24 09:46:34;;;;;;;22.45;12.70;;;;;;;1.39;67.06;99363.16;6275487;22;20018;-64
2024/01/24 09:49:01;;;;;;;24.77;13.65;;;;;;;1.40;66.97;99364.88;6275661;22;19999;-65
2024/01/24 09:51:30;;;;;;;22.20;13.07;;;;;;;1.50;67.26;99352.94;6275868;22;20011;-57
2024/01/24 09:53:59;;;;;;;23.42;13.30;;;;;;;1.45;66.81;99344.41;6271822;22;20037;-57
2024/01/24 09:56:26;;;;;;;25.65;12.00;;;;;;;1.31;66.53;99294.97;6273791;22;20015;-59
2024/01/24 09:58:51;;;;;;;22.02;12.20;;;;;;;1.56;66.26;99326.25;6274745;22;20019;-56
2024/01/24 10:01:19;;;;;;;24.48;12.70;;;;;;;1.58;66.65;99331.44;6275554;22;20003;-57
2024/01/24 10:03:46;;;;;;;23.02;12.85;;;;;;;1.61;66.59;99314.59;6274924;22;20007;-55
2024/01/24 10:06:12;;;;;;;23.33;13.43;;;;;;;1.68;66.32;99322.13;6274724;22;20007;-56
2024/01/24 10:08:38;;;;;;;25.85;11.90;;;;;;;1.75;66.18;99324.44;6273038;22;20082;-59
2024/01/24 10:11:04;;;;;;;22.70;12.02;;;;;;;1.81;66.37;99326.75;6274781;22;20399;-58
2024/01/24 10:13:32;;;;;;;26.75;11.90;;;;;;;1.84;65.92;99305.47;6273754;22;20007;-61
2024/01/24 10:15:59;;;;;;;19.33;10.35;;;;;;;1.85;65.66;99315.94;6275477;22;20308;-58
2024/01/24 10:18:25;;;;;;;18.60;10.93;;;;;;;1.65;65.75;99279.19;6274106;22;20022;-57
2024/01/24 10:20:50;;;;;;;18.45;11.55;;;;;;;1.77;65.14;99312.88;6273387;22;20487;-56
2024/01/24 10:23:16;;;;;;;19.40;10.43;;;;;;;1.78;65.36;99306.66;6274656;22;20348;-58
2024/01/24 10:25:41;;;;;;;18.63;10.57;;;;;;;1.68;65.47;99300.13;6274122;22;20004;-57
2024/01/24 10:28:14;;;;;;;20.38;10.25;;;;;;;1.70;65.58;99298.28;6274804;22;20462;-59
2024/01/24 10:30:41;;;;;;;20.40;10.77;;;;;;;1.40;66.18;99270.78;6274361;22;20064;-56
2024/01/24 10:33:11;;;;;;;16.27;10.55;;;;;;;1.67;66.07;99288.75;6275257;22;20062;-60
2024/01/24 10:35:37;;;;;;;19.45;10.18;;;;;;;1.45;65.66;99243.31;6274957;22;20068;-58
2024/01/24 10:38:04;;;;;;;18.33;10.52;;;;;;;1.68;65.89;99279.88;6274246;22;20042;-59
2024/01/24 10:40:31;;;;;;;15.77;9.63;;;;;;;1.75;65.64;99284.84;6275398;22;20078;-57
2024/01/24 10:43:05;;;;;;;17.25;9.82;;;;;;;1.70;65.67;99282.47;6273628;22;20012;-59
2024/01/24 10:45:31;;;;;;;15.77;9.60;;;;;;;1.64;65.79;99277.47;6274535;22;20114;-59
2024/01/24 10:47:58;;;;;;;17.10;9.93;;;;;;;1.62;66.38;99274.06;6274461;22;20102;-61
2024/01/24 10:50:25;;;;;;;18.15;10.07;;;;;;;1.25;66.56;99213.53;6274925;22;20400;-58
2024/01/24 10:52:54;;;;;;;13.93;9.07;;;;;;;1.33;66.22;99214.00;6274021;22;20341;-61
2024/01/24 10:55:21;;;;;;;20.23;10.10;;;;;;;1.42;66.29;99229.34;6274205;22;20006;-61
2024/01/24 10:57:47;;;;;;;17.58;10.50;;;;;;;1.60;66.60;99260.13;6274557;22;20015;-61
2024/01/24 11:00:17;;;;;;;18.60;9.88;;;;;;;1.65;66.36;99253.66;6274980;22;20006;-59
2024/01/24 11:02:43;;;;;;;18.75;10.75;;;;;;;1.63;66.47;99252.03;6273472;22;20011;-60
2024/01/24 11:05:16;;;;;;;20.67;10.77;;;;;;;1.68;66.78;99250.00;6273863;22;19996;-63
2024/01/24 11:07:59;;;;;;;18.80;10.40;;;;;;;1.58;67.29;99239.94;6275055;22;20008;-60
2024/01/24 11:10:40;;;;;;;17.02;11.05;;;;;;;1.84;66.99;99244.78;6268401;22;20012;-61
2024/01/24 11:13:07;;;;;;;19.42;10.73;;;;;;;1.69;66.52;99238.53;6266983;22;20019;-59
2024/01/24 11:15:34;;;;;;;20.65;11.80;;;;;;;1.73;66.89;99224.22;6271713;22;19999;-59
2024/01/24 11:18:25;;;;;;;17.63;11.38;;;;;;;1.89;66.95;99218.09;6273784;22;20000;-63